Time;durP1;ratioP1;P1;durP2;ratioP2;P2;SDS_P1;SDS_P2;PMS_P1;PMS_P2;Temp;Humidity;BMP_temperature;BMP_pressure;BME280_temperature;BME280_humidity;BME280_pressure;Samples;Min_cycle;Max_cycle;Signal;HPM_P1;HPM_P2
2022/09/22 00:01:08;;;;;;;5.93;1.20;;;10.20;99.90;;;;;;4996400;28;20047;-72
2022/09/22 00:03:36;;;;;;;5.68;1.45;;;10.20;99.90;;;;;;4978928;28;20054;-71
2022/09/22 00:06:05;;;;;;;5.88;1.60;;;10.10;99.90;;;;;;4996618;28;20062;-71
2022/09/22 00:08:34;;;;;;;5.72;1.73;;;10.10;99.90;;;;;;4979038;28;20454;-71
2022/09/22 00:11:12;;;;;;;6.18;1.55;;;10.10;99.90;;;;;;4978084;28;20126;-72
2022/09/22 00:13:39;;;;;;;10.20;1.77;;;10.10;99.90;;;;;;4979004;28;20056;-71
2022/09/22 00:16:07;;;;;;;6.95;1.23;;;10.00;99.90;;;;;;4996253;28;20046;-71
2022/09/22 00:18:35;;;;;;;6.10;1.75;;;10.00;99.90;;;;;;4978453;28;20089;-71
2022/09/22 00:21:15;;;;;;;5.75;1.30;;;10.00;99.90;;;;;;4978623;28;20446;-71
2022/09/22 00:23:41;;;;;;;3.85;1.65;;;10.00;99.90;;;;;;4978512;28;20042;-71
2022/09/22 00:26:10;;;;;;;5.20;1.90;;;9.90;99.90;;;;;;4995904;28;20042;-71
2022/09/22 00:28:37;;;;;;;4.80;1.35;;;9.90;99.90;;;;;;4995791;28;20090;-71
2022/09/22 00:31:08;;;;;;;6.18;1.73;;;9.90;99.90;;;;;;4978690;28;20042;-71
2022/09/22 00:33:34;;;;;;;6.47;1.55;;;9.90;99.90;;;;;;4978375;28;20078;-71
2022/09/22 00:36:01;;;;;;;5.15;1.40;;;9.80;99.90;;;;;;4978566;28;20084;-71
2022/09/22 00:38:27;;;;;;;6.72;1.42;;;9.80;99.90;;;;;;4978189;28;20046;-72
2022/09/22 00:40:53;;;;;;;4.60;1.35;;;9.70;99.90;;;;;;4978170;28;20038;-71
2022/09/22 00:43:22;;;;;;;6.18;1.73;;;9.70;99.90;;;;;;4978117;28;20137;-71
2022/09/22 00:45:52;;;;;;;5.53;1.50;;;9.70;99.90;;;;;;4978187;28;20077;-71
2022/09/22 00:48:21;;;;;;;6.03;1.70;;;9.70;99.90;;;;;;4978074;28;20096;-72
2022/09/22 00:50:48;;;;;;;4.47;1.35;;;9.70;99.90;;;;;;4978119;28;20445;-71
2022/09/22 00:53:16;;;;;;;5.65;1.65;;;9.70;99.90;;;;;;4977966;28;20050;-71
2022/09/22 00:56:11;;;;;;;8.18;1.60;;;9.70;99.90;;;;;;4978026;28;20073;-71
2022/09/22 00:58:43;;;;;;;9.20;1.60;;;9.70;99.90;;;;;;4995545;28;20042;-71
2022/09/22 01:01:09;;;;;;;8.65;1.55;;;9.60;99.90;;;;;;4977861;28;20053;-71
2022/09/22 01:03:38;;;;;;;3.78;1.48;;;9.60;99.90;;;;;;4977729;28;20129;-71
2022/09/22 01:06:06;;;;;;;7.03;1.90;;;9.60;99.90;;;;;;4995208;28;20105;-71
2022/09/22 01:08:33;;;;;;;9.02;1.63;;;9.60;99.90;;;;;;4977663;28;20042;-72
2022/09/22 01:10:59;;;;;;;5.55;1.40;;;9.50;99.90;;;;;;4995130;28;20091;-71
2022/09/22 01:13:56;;;;;;;5.70;1.70;;;9.60;99.90;;;;;;4977620;28;20061;-71
2022/09/22 01:16:43;;;;;;;8.10;1.67;;;9.60;99.90;;;;;;4977319;28;20093;-70
2022/09/22 01:19:53;;;;;;;7.10;2.20;;;9.50;99.90;;;;;;4978069;28;20054;-71
2022/09/22 01:23:17;;;;;;;7.50;1.85;;;9.50;99.90;;;;;;4976319;28;20539;-71
2022/09/22 01:26:13;;;;;;;8.45;2.15;;;9.50;99.90;;;;;;4881373;29;20049;-71
2022/09/22 01:29:03;;;;;;;4.82;2.08;;;9.40;99.90;;;;;;4881335;29;20080;-71
2022/09/22 01:31:41;;;;;;;5.25;1.77;;;9.40;99.90;;;;;;4962725;28;20108;-71
2022/09/22 01:34:33;;;;;;;5.45;1.55;;;9.40;99.90;;;;;;4977500;28;20049;-71
2022/09/22 01:37:10;;;;;;;5.22;1.50;;;9.30;99.90;;;;;;4972439;28;20061;-71
2022/09/22 01:39:45;;;;;;;4.90;1.60;;;9.30;99.90;;;;;;4977395;28;20155;-71
2022/09/22 01:42:19;;;;;;;6.13;1.60;;;9.30;99.90;;;;;;4978387;28;20046;-71
2022/09/22 01:44:57;;;;;;;5.35;1.42;;;9.30;99.90;;;;;;4977325;28;20046;-71
2022/09/22 01:47:40;;;;;;;3.53;1.45;;;9.30;99.90;;;;;;4976978;28;20049;-71
2022/09/22 01:50:19;;;;;;;6.90;1.63;;;9.30;99.90;;;;;;4977050;28;20042;-71
2022/09/22 01:52:45;;;;;;;3.60;1.63;;;9.20;99.90;;;;;;4994354;28;20054;-71
2022/09/22 01:55:23;;;;;;;4.28;1.42;;;9.20;99.90;;;;;;4994296;28;20117;-71
2022/09/22 01:57:56;;;;;;;6.28;1.98;;;9.20;99.90;;;;;;4976771;28;20122;-71
2022/09/22 02:00:22;;;;;;;6.72;1.85;;;9.20;99.90;;;;;;4976799;28;20041;-71
2022/09/22 02:03:15;;;;;;;4.75;1.50;;;9.20;99.90;;;;;;4994080;28;20042;-71
2022/09/22 02:05:42;;;;;;;7.45;1.98;;;9.10;99.90;;;;;;4994494;28;20047;-71
2022/09/22 02:08:28;;;;;;;2.90;1.45;;;9.10;99.90;;;;;;4976615;28;20049;-72
2022/09/22 02:10:57;;;;;;;7.45;1.60;;;9.10;99.90;;;;;;4976658;28;20044;-71
2022/09/22 02:13:23;;;;;;;5.40;1.90;;;9.10;99.90;;;;;;4976559;28;20050;-71
2022/09/22 02:16:00;;;;;;;3.58;1.70;;;9.10;99.90;;;;;;4976817;28;20072;-71
2022/09/22 02:18:45;;;;;;;5.38;1.70;;;9.10;99.90;;;;;;4993797;28;20514;-71
2022/09/22 02:21:12;;;;;;;2.60;1.30;;;9.00;99.90;;;;;;4976530;28;20034;-71
2022/09/22 02:23:38;;;;;;;8.43;1.63;;;8.90;99.90;;;;;;4976503;28;20042;-71
2022/09/22 02:26:05;;;;;;;5.18;1.48;;;8.90;99.90;;;;;;4976417;28;20518;-71
2022/09/22 02:28:33;;;;;;;5.78;1.38;;;8.80;99.90;;;;;;4976285;28;20047;-71
2022/09/22 02:31:02;;;;;;;5.90;1.45;;;8.80;99.90;;;;;;4976373;28;20525;-71
2022/09/22 02:33:32;;;;;;;3.63;1.40;;;8.80;99.90;;;;;;4993427;28;20495;-71
2022/09/22 02:36:19;;;;;;;4.47;1.40;;;8.80;99.90;;;;;;4976599;28;20046;-71
2022/09/22 02:39:10;;;;;;;4.35;1.42;;;8.80;99.90;;;;;;4993796;28;20046;-71
2022/09/22 02:41:55;;;;;;;4.22;1.38;;;8.70;99.90;;;;;;4976367;28;20077;-71
2022/09/22 02:44:30;;;;;;;8.18;1.70;;;8.60;99.90;;;;;;4976172;28;20437;-71
2022/09/22 02:47:20;;;;;;;6.68;1.58;;;8.60;99.90;;;;;;4976210;28;20049;-71
2022/09/22 02:49:47;;;;;;;6.43;1.73;;;8.60;99.90;;;;;;4976214;28;20045;-71
2022/09/22 02:52:13;;;;;;;4.80;1.60;;;8.50;99.90;;;;;;4976199;28;20474;-71
2022/09/22 02:54:39;;;;;;;6.82;2.03;;;8.50;99.90;;;;;;4993603;28;20046;-71
2022/09/22 02:57:06;;;;;;;4.75;1.50;;;8.50;99.90;;;;;;4976350;28;20050;-71
2022/09/22 02:59:31;;;;;;;3.85;1.70;;;8.50;99.90;;;;;;4976182;28;20074;-71
2022/09/22 03:01:57;;;;;;;8.43;1.73;;;8.50;99.90;;;;;;4976110;28;20074;-71
2022/09/22 03:04:23;;;;;;;7.15;1.67;;;8.50;99.90;;;;;;4976036;28;20049;-71
2022/09/22 03:06:48;;;;;;;5.30;1.95;;;8.50;99.90;;;;;;4975963;28;20039;-71
2022/09/22 03:09:16;;;;;;;4.22;1.42;;;8.50;99.90;;;;;;4976271;28;20110;-71
2022/09/22 03:11:42;;;;;;;5.85;1.60;;;8.50;99.90;;;;;;4993487;28;20117;-71
2022/09/22 03:14:08;;;;;;;7.75;1.70;;;8.50;99.90;;;;;;4976046;28;20518;-71
2022/09/22 03:16:33;;;;;;;6.15;2.03;;;8.50;99.90;;;;;;4975833;28;20049;-71
2022/09/22 03:18:59;;;;;;;7.03;1.60;;;8.50;99.90;;;;;;4960190;28;20053;-71
2022/09/22 03:21:25;;;;;;;5.43;1.90;;;8.50;99.90;;;;;;4993376;28;20542;-71
2022/09/22 03:23:50;;;;;;;4.95;1.90;;;8.50;99.90;;;;;;4975798;28;20046;-71
2022/09/22 03:26:16;;;;;;;5.30;1.67;;;8.50;99.90;;;;;;4993334;28;20144;-71
2022/09/22 03:28:45;;;;;;;8.15;1.73;;;8.40;99.90;;;;;;4975856;28;20491;-72
2022/09/22 03:31:10;;;;;;;5.07;1.30;;;8.40;99.90;;;;;;4993248;28;20451;-71
2022/09/22 03:33:37;;;;;;;4.05;1.77;;;8.40;99.90;;;;;;4976668;28;20050;-71
2022/09/22 03:36:04;;;;;;;6.20;1.75;;;8.40;99.90;;;;;;4993801;28;20061;-71
2022/09/22 03:38:30;;;;;;;6.00;2.00;;;8.40;99.90;;;;;;4975743;28;20042;-71
2022/09/22 03:40:57;;;;;;;6.93;2.13;;;8.40;99.90;;;;;;4975767;28;20042;-71
2022/09/22 03:43:23;;;;;;;2.67;1.65;;;8.40;99.90;;;;;;4975765;28;20050;-71
2022/09/22 03:45:55;;;;;;;6.80;2.22;;;8.40;99.90;;;;;;4978241;28;20049;-71
2022/09/22 03:48:21;;;;;;;3.63;1.85;;;8.50;99.90;;;;;;4996666;28;20038;-71
2022/09/22 03:50:47;;;;;;;4.13;2.33;;;8.40;99.90;;;;;;4979193;28;20407;-71
2022/09/22 03:53:12;;;;;;;7.82;2.30;;;8.30;99.90;;;;;;4979068;28;20105;-71
2022/09/22 03:55:38;;;;;;;5.57;2.58;;;8.40;99.90;;;;;;4979013;28;20043;-71
2022/09/22 03:58:03;;;;;;;6.32;2.30;;;8.40;99.90;;;;;;4979267;28;20125;-71
2022/09/22 04:00:29;;;;;;;7.47;2.45;;;8.40;99.90;;;;;;4979030;28;20455;-71
2022/09/22 04:02:57;;;;;;;8.40;3.15;;;8.40;99.90;;;;;;4978885;28;20061;-71
2022/09/22 04:05:23;;;;;;;7.30;2.63;;;8.40;99.90;;;;;;4978856;28;20056;-71
2022/09/22 04:07:49;;;;;;;8.25;2.97;;;8.40;99.90;;;;;;4996202;28;20085;-72
2022/09/22 04:10:14;;;;;;;5.93;2.88;;;8.30;99.90;;;;;;4978803;28;20046;-72
2022/09/22 04:12:40;;;;;;;7.93;3.45;;;8.30;99.90;;;;;;4978766;28;20046;-72
2022/09/22 04:15:06;;;;;;;6.63;2.83;;;8.30;99.90;;;;;;4978696;28;20038;-71
2022/09/22 04:17:31;;;;;;;7.97;2.63;;;8.30;99.90;;;;;;4978443;28;20049;-71
2022/09/22 04:19:58;;;;;;;7.25;2.08;;;8.30;99.90;;;;;;4996060;28;20034;-71
2022/09/22 04:22:23;;;;;;;3.63;1.90;;;8.30;99.90;;;;;;4978550;28;20046;-71
2022/09/22 04:24:49;;;;;;;5.47;2.78;;;8.20;99.90;;;;;;4995980;28;20069;-71
2022/09/22 04:27:15;;;;;;;9.15;2.65;;;8.20;99.90;;;;;;4978473;28;20050;-71
2022/09/22 04:29:40;;;;;;;7.32;2.88;;;8.20;99.90;;;;;;4978388;28;20049;-71
2022/09/22 04:32:06;;;;;;;5.72;2.70;;;8.20;99.90;;;;;;4978469;28;20184;-71
2022/09/22 04:34:31;;;;;;;9.52;3.20;;;8.10;99.90;;;;;;4996136;28;20165;-71
2022/09/22 04:36:57;;;;;;;7.93;4.07;;;8.10;99.90;;;;;;4978314;28;20506;-71
2022/09/22 04:39:22;;;;;;;7.28;3.85;;;8.10;99.90;;;;;;4995758;28;20042;-71
2022/09/22 04:41:48;;;;;;;8.05;3.80;;;8.10;99.90;;;;;;4978482;28;20057;-71
2022/09/22 04:44:13;;;;;;;6.03;3.42;;;8.10;99.90;;;;;;4995581;28;20050;-71
2022/09/22 04:46:40;;;;;;;5.68;3.03;;;8.00;99.90;;;;;;4995518;28;20042;-71
2022/09/22 04:49:06;;;;;;;7.53;2.92;;;8.00;99.90;;;;;;4978055;28;20042;-71
2022/09/22 04:51:31;;;;;;;9.25;3.20;;;8.00;99.90;;;;;;4978044;28;20038;-71
2022/09/22 04:53:57;;;;;;;7.75;3.30;;;8.00;99.90;;;;;;4978032;28;20042;-71
2022/09/22 04:56:22;;;;;;;5.95;3.67;;;8.00;99.90;;;;;;4995076;28;20050;-70
2022/09/22 04:58:48;;;;;;;8.90;4.15;;;8.00;99.90;;;;;;4977938;28;20042;-73
2022/09/22 05:01:13;;;;;;;7.80;3.58;;;8.00;99.90;;;;;;4978940;28;20121;-72
2022/09/22 05:03:39;;;;;;;6.57;4.28;;;8.00;99.90;;;;;;4977879;28;20455;-71
2022/09/22 05:06:05;;;;;;;7.13;4.88;;;8.00;99.90;;;;;;4995218;28;20490;-71
2022/09/22 05:08:32;;;;;;;10.15;4.80;;;7.90;99.90;;;;;;4977857;28;20117;-71
2022/09/22 05:10:58;;;;;;;5.70;4.10;;;7.90;99.90;;;;;;4977699;28;20043;-71
2022/09/22 05:13:24;;;;;;;7.88;3.85;;;7.90;99.90;;;;;;4995515;28;20046;-71
2022/09/22 05:15:50;;;;;;;5.80;3.80;;;7.90;99.90;;;;;;4977854;28;20449;-71
2022/09/22 05:18:15;;;;;;;7.05;4.57;;;7.90;99.90;;;;;;4994805;28;20061;-71
2022/09/22 05:20:42;;;;;;;7.57;4.45;;;7.90;99.90;;;;;;4977458;28;20385;-71
2022/09/22 05:23:09;;;;;;;7.63;4.90;;;7.90;99.90;;;;;;4977239;28;20049;-71
2022/09/22 05:25:35;;;;;;;8.00;4.97;;;7.90;99.90;;;;;;4977344;28;20054;-71
2022/09/22 05:28:01;;;;;;;9.50;5.00;;;7.90;99.90;;;;;;4977215;28;20231;-71
2022/09/22 05:30:27;;;;;;;7.40;4.40;;;7.90;99.90;;;;;;4977330;28;20065;-71
2022/09/22 05:32:53;;;;;;;5.70;3.83;;;7.90;99.90;;;;;;4977300;28;20054;-71
2022/09/22 05:35:22;;;;;;;7.00;4.18;;;7.90;99.90;;;;;;4977336;28;20058;-71
2022/09/22 05:37:49;;;;;;;4.80;4.03;;;7.90;99.90;;;;;;4977060;28;20042;-71
2022/09/22 05:40:16;;;;;;;5.95;4.15;;;7.90;99.90;;;;;;4977089;28;20538;-71
2022/09/22 05:42:43;;;;;;;8.23;4.40;;;7.90;99.90;;;;;;4977113;28;20100;-71
2022/09/22 05:45:10;;;;;;;6.13;4.55;;;7.90;99.90;;;;;;4976973;28;20503;-71
2022/09/22 05:47:35;;;;;;;8.18;4.80;;;7.90;99.90;;;;;;4994329;28;20046;-71
2022/09/22 05:50:01;;;;;;;9.27;5.18;;;7.90;99.90;;;;;;4977101;28;20533;-71
2022/09/22 05:52:27;;;;;;;10.50;5.00;;;7.90;99.90;;;;;;4976830;28;20042;-71
2022/09/22 05:54:52;;;;;;;10.57;5.40;;;7.90;99.90;;;;;;4994245;28;20078;-71
2022/09/22 05:57:24;;;;;;;7.88;5.60;;;7.90;99.90;;;;;;4977013;28;20404;-71
2022/09/22 05:59:53;;;;;;;7.78;5.50;;;7.90;99.90;;;;;;4976834;28;20046;-71
2022/09/22 06:02:19;;;;;;;7.07;4.75;;;8.00;99.90;;;;;;4994057;28;20038;-71
2022/09/22 06:04:44;;;;;;;8.75;5.40;;;8.00;99.90;;;;;;4994677;28;20049;-71
2022/09/22 06:07:10;;;;;;;7.78;5.13;;;8.00;99.90;;;;;;4976018;28;20042;-71
2022/09/22 06:09:35;;;;;;;8.95;5.60;;;8.00;99.90;;;;;;4977152;28;20042;-71
2022/09/22 06:12:01;;;;;;;10.60;5.43;;;8.10;99.90;;;;;;4976618;28;20077;-72
2022/09/22 06:14:27;;;;;;;9.07;4.88;;;8.10;99.90;;;;;;4976774;28;20096;-71
2022/09/22 06:16:53;;;;;;;6.57;5.30;;;8.10;99.90;;;;;;4976389;28;20046;-71
2022/09/22 06:19:19;;;;;;;7.60;5.18;;;8.10;99.90;;;;;;4976483;28;20042;-72
2022/09/22 06:21:44;;;;;;;7.30;5.13;;;8.10;99.90;;;;;;4993855;28;20043;-71
2022/09/22 06:24:11;;;;;;;8.98;5.47;;;8.10;99.90;;;;;;4976393;28;20129;-71
2022/09/22 06:26:37;;;;;;;7.80;5.28;;;8.20;99.90;;;;;;4976362;28;20038;-71
2022/09/22 06:29:02;;;;;;;11.25;6.55;;;8.20;99.90;;;;;;4976475;28;20176;-71
2022/09/22 06:31:28;;;;;;;7.80;6.20;;;8.30;99.90;;;;;;4976328;28;20034;-72
2022/09/22 06:33:53;;;;;;;11.43;6.03;;;8.30;99.90;;;;;;4976345;28;20042;-71
2022/09/22 06:36:26;;;;;;;8.80;6.28;;;8.30;99.90;;;;;;4976321;28;20125;-72
2022/09/22 06:38:53;;;;;;;7.72;5.80;;;8.40;99.90;;;;;;4976554;28;20050;-71
2022/09/22 06:41:18;;;;;;;9.60;6.30;;;8.50;99.90;;;;;;4960105;28;20082;-72
2022/09/22 06:43:46;;;;;;;8.68;6.95;;;8.50;99.90;;;;;;4976144;28;20146;-71
2022/09/22 06:46:12;;;;;;;9.90;6.43;;;8.60;99.90;;;;;;4976188;28;20487;-71
2022/09/22 06:48:38;;;;;;;12.77;7.32;;;8.70;99.90;;;;;;4976068;28;20145;-71
2022/09/22 06:51:04;;;;;;;10.82;6.40;;;8.70;99.90;;;;;;4993572;28;20038;-71
2022/09/22 06:53:30;;;;;;;10.70;6.72;;;8.80;99.90;;;;;;4993773;28;20073;-72
2022/09/22 06:55:57;;;;;;;9.60;7.60;;;8.90;99.90;;;;;;4976281;28;20133;-71
2022/09/22 06:58:24;;;;;;;8.27;7.40;;;9.00;99.90;;;;;;4993484;28;20050;-71
2022/09/22 07:00:49;;;;;;;12.68;7.45;;;9.10;99.90;;;;;;4976080;28;20505;-71
2022/09/22 07:03:23;;;;;;;13.20;8.35;;;9.20;99.90;;;;;;4959879;28;20058;-71
2022/09/22 07:06:00;;;;;;;12.30;7.82;;;9.30;99.90;;;;;;4977118;28;20046;-71
2022/09/22 07:08:27;;;;;;;10.75;7.80;;;9.40;99.90;;;;;;4976167;28;20046;-71
2022/09/22 07:11:00;;;;;;;12.05;8.88;;;9.40;99.90;;;;;;4976224;28;20049;-71
2022/09/22 07:13:30;;;;;;;13.27;8.85;;;9.50;99.90;;;;;;4976215;28;20419;-71
2022/09/22 07:16:03;;;;;;;11.52;7.90;;;9.60;99.90;;;;;;4993608;28;20060;-71
2022/09/22 07:18:29;;;;;;;15.57;8.60;;;9.70;99.90;;;;;;4976385;28;20038;-71
2022/09/22 07:21:07;;;;;;;11.65;8.25;;;9.80;99.90;;;;;;4979679;28;20053;-71
2022/09/22 07:23:34;;;;;;;13.38;8.48;;;9.90;99.90;;;;;;4979723;28;20132;-71
2022/09/22 07:26:05;;;;;;;14.57;8.30;;;10.00;99.90;;;;;;4979551;28;20050;-71
2022/09/22 07:28:32;;;;;;;10.75;7.95;;;10.00;99.90;;;;;;4979548;28;20066;-72
2022/09/22 07:31:06;;;;;;;12.63;8.18;;;10.10;99.90;;;;;;4997220;28;20046;-72
2022/09/22 07:33:35;;;;;;;11.50;7.82;;;10.20;99.90;;;;;;4979650;28;20118;-71
2022/09/22 07:36:09;;;;;;;10.05;7.43;;;10.30;99.90;;;;;;4979340;28;20053;-71
2022/09/22 07:38:35;;;;;;;14.68;8.05;;;10.40;99.90;;;;;;4979555;28;20030;-72
2022/09/22 07:41:07;;;;;;;9.02;7.05;;;10.50;99.90;;;;;;4979593;28;20065;-72
2022/09/22 07:43:33;;;;;;;13.48;8.50;;;10.50;99.90;;;;;;4996758;28;20133;-72
2022/09/22 07:45:59;;;;;;;8.85;7.60;;;10.70;99.90;;;;;;4979189;28;20042;-72
2022/09/22 07:48:35;;;;;;;10.07;7.32;;;10.80;99.90;;;;;;4979181;28;20125;-71
2022/09/22 07:51:01;;;;;;;8.13;6.78;;;10.90;99.90;;;;;;4979198;28;20097;-72
2022/09/22 07:53:27;;;;;;;11.43;7.30;;;11.00;99.90;;;;;;4979346;28;20060;-72
2022/09/22 07:55:52;;;;;;;12.52;6.90;;;11.20;99.90;;;;;;4978995;28;20046;-71
2022/09/22 07:58:19;;;;;;;11.13;6.68;;;11.30;99.90;;;;;;4979128;28;20050;-71
2022/09/22 08:00:45;;;;;;;10.00;6.50;;;11.50;99.90;;;;;;4978887;28;20526;-71
2022/09/22 08:03:10;;;;;;;11.30;6.57;;;11.70;99.90;;;;;;4978837;28;20050;-71
2022/09/22 08:05:38;;;;;;;9.10;5.70;;;11.90;99.90;;;;;;4978896;28;20126;-71
2022/09/22 08:08:04;;;;;;;8.73;5.80;;;12.20;99.90;;;;;;4978736;28;20198;-71
2022/09/22 08:10:32;;;;;;;7.45;6.22;;;12.40;99.90;;;;;;4979068;28;20093;-72
2022/09/22 08:12:59;;;;;;;9.48;5.68;;;12.70;99.90;;;;;;4996146;28;20447;-71
2022/09/22 08:15:25;;;;;;;7.97;5.78;;;13.00;99.90;;;;;;4996704;28;20435;-72
2022/09/22 08:17:55;;;;;;;9.70;5.47;;;13.30;99.90;;;;;;4995961;28;20073;-71
2022/09/22 08:20:21;;;;;;;8.13;5.22;;;13.50;99.90;;;;;;4996379;28;20049;-72
2022/09/22 08:22:52;;;;;;;9.57;4.95;;;13.80;99.90;;;;;;4978508;28;20051;-72
2022/09/22 08:25:18;;;;;;;11.27;5.22;;;14.20;99.90;;;;;;4978796;28;20042;-71
2022/09/22 08:27:43;;;;;;;6.95;4.95;;;14.50;99.90;;;;;;4996127;28;20410;-71
2022/09/22 08:30:10;;;;;;;8.55;4.60;;;14.80;99.90;;;;;;4961764;28;20132;-72
2022/09/22 08:32:37;;;;;;;8.38;4.45;;;15.20;99.90;;;;;;4995794;28;20058;-72
2022/09/22 08:35:03;;;;;;;10.45;4.88;;;15.50;99.90;;;;;;4978585;28;20054;-71
2022/09/22 08:37:31;;;;;;;8.63;4.10;;;15.90;99.90;;;;;;4978227;28;20503;-72
2022/09/22 08:39:57;;;;;;;8.32;4.03;;;16.20;99.90;;;;;;4978214;28;20073;-72
2022/09/22 08:42:24;;;;;;;7.15;4.00;;;16.70;99.90;;;;;;4978124;28;20569;-72
2022/09/22 08:44:57;;;;;;;5.97;3.80;;;17.10;99.90;;;;;;4995511;28;20572;-72
2022/09/22 08:53:40;;;;;;;6.75;3.03;;;18.90;99.90;;;;;;4977985;28;20046;-72
2022/09/22 08:56:22;;;;;;;6.53;3.30;;;19.70;95.70;;;;;;4995854;28;20042;-71
2022/09/22 08:59:03;;;;;;;8.85;3.50;;;20.30;92.90;;;;;;4995657;28;20049;-72
2022/09/22 09:01:50;;;;;;;8.30;3.03;;;21.00;87.90;;;;;;4995317;28;20043;-72
2022/09/22 09:04:22;;;;;;;8.13;3.10;;;21.70;77.90;;;;;;4977722;28;20057;-71
2022/09/22 09:07:12;;;;;;;8.57;3.22;;;22.40;70.60;;;;;;4995664;28;20046;-72
2022/09/22 09:10:02;;;;;;;5.97;2.78;;;23.00;65.80;;;;;;4977733;28;20042;-72
2022/09/22 09:12:43;;;;;;;4.80;2.60;;;23.60;63.80;;;;;;4961494;28;20054;-72
2022/09/22 09:15:20;;;;;;;8.50;2.83;;;24.10;62.00;;;;;;4995213;28;20054;-72
2022/09/22 09:17:47;;;;;;;6.40;2.47;;;24.50;58.80;;;;;;4977679;28;20149;-72
2022/09/22 09:20:22;;;;;;;6.25;2.50;;;24.80;57.60;;;;;;4977760;28;20085;-72
2022/09/22 09:22:56;;;;;;;4.07;2.40;;;24.90;55.90;;;;;;4977731;28;20038;-72
2022/09/22 09:25:29;;;;;;;5.65;2.13;;;25.10;55.40;;;;;;4995436;28;20103;-71
2022/09/22 09:27:59;;;;;;;5.50;2.00;;;25.10;55.10;;;;;;4977681;28;20050;-72
2022/09/22 09:30:25;;;;;;;4.53;2.33;;;25.10;55.50;;;;;;4977537;28;20038;-72
2022/09/22 09:32:58;;;;;;;5.25;2.22;;;25.10;55.60;;;;;;4977285;28;20519;-72
2022/09/22 09:35:45;;;;;;;4.97;2.15;;;25.10;55.50;;;;;;4994682;28;20038;-72
2022/09/22 09:38:13;;;;;;;5.38;2.10;;;25.00;55.40;;;;;;4976901;28;20514;-72
2022/09/22 09:40:39;;;;;;;7.10;2.38;;;25.00;55.40;;;;;;4977413;28;20061;-72
2022/09/22 09:43:05;;;;;;;6.47;2.05;;;24.80;55.60;;;;;;4976087;28;20407;-72
2022/09/22 09:45:50;;;;;;;7.97;1.90;;;24.70;56.00;;;;;;4977345;28;20042;-72
2022/09/22 09:48:57;;;;;;;5.93;1.90;;;24.50;56.20;;;;;;4960826;28;20077;-72
2022/09/22 09:51:22;;;;;;;3.97;1.77;;;24.40;55.00;;;;;;4977213;28;20081;-72
2022/09/22 09:53:49;;;;;;;5.57;1.85;;;24.30;56.90;;;;;;4994336;28;20464;-72
2022/09/22 09:56:24;;;;;;;5.88;1.90;;;24.10;56.90;;;;;;4976838;28;20045;-72
2022/09/22 10:01:56;;;;;;;4.28;1.95;;;23.90;55.60;;;;;;4976739;28;20049;-72
2022/09/22 10:04:34;;;;;;;4.90;1.60;;;23.80;57.00;;;;;;4994297;28;20046;-72
2022/09/22 10:07:11;;;;;;;5.85;1.95;;;23.80;56.00;;;;;;4976684;28;20042;-72
2022/09/22 10:09:38;;;;;;;6.20;2.20;;;23.70;55.00;;;;;;4976749;28;20452;-72
2022/09/22 10:12:04;;;;;;;6.40;2.10;;;23.70;56.30;;;;;;4976694;28;20499;-72
2022/09/22 10:14:34;;;;;;;6.13;1.98;;;23.70;56.90;;;;;;4976843;28;20049;-72
2022/09/22 10:16:59;;;;;;;7.50;1.98;;;23.70;56.60;;;;;;4994194;28;20034;-72
2022/09/22 10:19:30;;;;;;;5.22;1.75;;;23.80;55.90;;;;;;4977410;28;20426;-72
2022/09/22 10:22:23;;;;;;;4.72;1.60;;;23.80;54.80;;;;;;4976702;28;20046;-72
2022/09/22 10:25:00;;;;;;;4.47;1.83;;;23.80;53.70;;;;;;4966627;28;20054;-72
2022/09/22 10:27:28;;;;;;;8.32;2.03;;;23.90;54.80;;;;;;4976346;28;20213;-72
2022/09/22 10:30:12;;;;;;;4.30;1.42;;;24.00;54.50;;;;;;4976608;28;20046;-72
2022/09/22 10:32:38;;;;;;;7.25;1.70;;;24.00;53.30;;;;;;4960444;28;20046;-72
2022/09/22 10:35:28;;;;;;;5.65;2.17;;;24.10;54.40;;;;;;4993828;28;20089;-72
2022/09/22 10:38:06;;;;;;;6.57;1.70;;;24.10;52.50;;;;;;4965473;28;20073;-72
2022/09/22 10:40:37;;;;;;;7.70;2.22;;;24.20;54.50;;;;;;4994028;28;20122;-73
2022/09/22 10:43:12;;;;;;;7.03;2.55;;;24.20;53.40;;;;;;4976246;28;20046;-72
2022/09/22 10:45:54;;;;;;;6.57;2.08;;;24.20;53.00;;;;;;4976282;28;20450;-73
2022/09/22 10:48:48;;;;;;;7.72;2.10;;;24.20;54.00;;;;;;4976499;28;20138;-72
2022/09/22 10:51:40;;;;;;;5.72;2.28;;;24.30;54.20;;;;;;4960186;28;20108;-72
2022/09/22 10:54:33;;;;;;;7.05;2.38;;;24.50;52.50;;;;;;4978022;28;20054;-72
2022/09/22 10:57:08;;;;;;;8.52;2.92;;;24.70;50.50;;;;;;4980401;28;20042;-72
2022/09/22 10:59:36;;;;;;;6.32;3.05;;;24.70;52.30;;;;;;4980154;28;20051;-72
2022/09/22 11:02:30;;;;;;;7.80;1.92;;;24.70;52.10;;;;;;4980263;28;20078;-72
2022/09/22 11:12:15;;;;;;;6.43;2.55;;;24.80;52.00;;;;;;4980005;28;20128;-72
2022/09/22 11:14:34;;;;;;;6.43;2.85;;;24.80;49.60;;;;;;4966271;28;20042;-68
2022/09/22 11:17:30;;;;;;;6.05;2.42;;;24.90;50.10;;;;;;4979525;28;20038;-68
2022/09/22 11:20:22;;;;;;;7.07;3.20;;;25.10;49.80;;;;;;4980074;28;20518;-68
2022/09/22 11:23:01;;;;;;;7.30;3.42;;;25.30;48.90;;;;;;4979648;28;20454;-68
2022/09/22 11:25:46;;;;;;;7.82;3.75;;;25.40;49.40;;;;;;4979717;28;20503;-68
2022/09/22 11:28:45;;;;;;;5.32;3.10;;;25.10;49.10;;;;;;4979523;28;20084;-68
2022/09/22 11:31:22;;;;;;;9.32;3.13;;;24.60;47.90;;;;;;4979623;28;20046;-68
2022/09/22 11:34:16;;;;;;;10.05;3.50;;;23.90;49.30;;;;;;4979799;28;20050;-68
2022/09/22 11:37:27;;;;;;;7.00;3.28;;;23.30;51.10;;;;;;4966643;28;21399;-68
2022/09/22 11:40:26;;;;;;;7.18;3.67;;;22.80;52.10;;;;;;4996749;28;20046;-68
2022/09/22 11:43:16;;;;;;;7.38;3.60;;;22.60;53.90;;;;;;4996795;28;20058;-69
2022/09/22 11:45:58;;;;;;;12.13;3.20;;;23.10;51.60;;;;;;4979548;28;20047;-69
2022/09/22 11:48:48;;;;;;;8.63;3.60;;;23.50;51.70;;;;;;4996693;28;20112;-69
2022/09/22 11:51:51;;;;;;;7.53;3.65;;;23.90;50.10;;;;;;4979234;28;20038;-69
2022/09/22 11:54:43;;;;;;;10.35;3.78;;;24.20;50.00;;;;;;4980184;28;20092;-69
2022/09/22 11:57:13;;;;;;;6.18;2.85;;;24.20;50.10;;;;;;4996803;28;20105;-69
2022/09/22 11:59:50;;;;;;;7.95;3.35;;;24.10;50.80;;;;;;4979339;28;20097;-69
2022/09/22 12:02:25;;;;;;;8.07;3.70;;;24.30;51.00;;;;;;4979059;28;20054;-69
2022/09/22 12:05:09;;;;;;;8.23;2.63;;;24.20;49.70;;;;;;4978347;28;20042;-69
2022/09/22 12:08:01;;;;;;;5.85;3.20;;;23.80;49.70;;;;;;4979983;28;20042;-69
2022/09/22 12:10:36;;;;;;;8.25;3.28;;;23.90;50.20;;;;;;4936605;28;20062;-69
2022/09/22 12:13:05;;;;;;;7.20;3.33;;;24.10;49.40;;;;;;4978793;28;20053;-69
2022/09/22 12:15:50;;;;;;;6.13;3.22;;;24.20;50.10;;;;;;4978698;28;20515;-69
2022/09/22 12:18:34;;;;;;;4.90;2.90;;;24.50;49.80;;;;;;4978479;28;20125;-69
2022/09/22 12:21:18;;;;;;;7.00;3.35;;;24.60;50.10;;;;;;4978690;28;20053;-68
2022/09/22 12:23:48;;;;;;;6.75;3.58;;;24.40;49.40;;;;;;4978594;28;20413;-68
2022/09/22 12:26:28;;;;;;;6.00;3.70;;;24.10;50.10;;;;;;4996554;28;20050;-69
2022/09/22 12:28:54;;;;;;;8.73;4.03;;;24.10;48.70;;;;;;4978515;28;20038;-69
2022/09/22 12:31:20;;;;;;;7.35;3.53;;;23.80;49.50;;;;;;4978840;28;20038;-69
2022/09/22 12:33:50;;;;;;;6.90;3.50;;;23.80;50.70;;;;;;4978480;28;20137;-69
2022/09/22 12:36:32;;;;;;;10.27;2.88;;;24.00;49.90;;;;;;4978715;28;20050;-69
2022/09/22 12:39:19;;;;;;;7.00;3.00;;;24.20;50.30;;;;;;4978409;28;20050;-69
2022/09/22 12:41:48;;;;;;;5.60;2.38;;;24.40;49.80;;;;;;4978293;28;20042;-69
2022/09/22 12:44:23;;;;;;;9.02;3.22;;;24.50;49.90;;;;;;4978195;28;20054;-69
2022/09/22 12:46:50;;;;;;;8.63;2.40;;;24.60;49.40;;;;;;4978196;28;20034;-70
2022/09/22 12:49:21;;;;;;;6.25;2.88;;;24.80;48.70;;;;;;4978352;28;20078;-70
2022/09/22 12:51:48;;;;;;;8.57;2.53;;;25.00;48.40;;;;;;4978182;28;20042;-68
2022/09/22 12:54:25;;;;;;;5.40;2.20;;;25.10;47.90;;;;;;4979210;28;20050;-68
2022/09/22 12:57:18;;;;;;;17.23;2.63;;;25.10;47.50;;;;;;4977919;28;20060;-66
2022/09/22 12:59:53;;;;;;;7.00;2.60;;;25.00;48.80;;;;;;4996034;28;20137;-66
2022/09/22 13:02:28;;;;;;;5.60;2.80;;;25.10;48.40;;;;;;4977944;28;20056;-66
2022/09/22 13:04:54;;;;;;;6.00;2.45;;;25.20;46.70;;;;;;4995818;28;20042;-66
2022/09/22 13:07:38;;;;;;;4.65;2.53;;;25.20;46.50;;;;;;4977748;28;20388;-66
2022/09/22 13:10:22;;;;;;;6.60;2.90;;;25.30;46.30;;;;;;4978027;28;20046;-66
2022/09/22 13:13:09;;;;;;;6.60;2.80;;;25.00;46.30;;;;;;4977938;28;20054;-66
2022/09/22 13:15:52;;;;;;;6.35;2.70;;;25.00;46.60;;;;;;4977656;28;20586;-66
2022/09/22 13:18:41;;;;;;;6.43;2.70;;;24.90;46.90;;;;;;4977531;28;20045;-66
2022/09/22 13:21:12;;;;;;;4.05;2.38;;;25.00;47.20;;;;;;4977660;28;20132;-66
2022/09/22 13:23:54;;;;;;;6.70;2.83;;;25.00;46.20;;;;;;4977445;28;20049;-66
2022/09/22 13:26:20;;;;;;;6.03;2.20;;;25.20;47.00;;;;;;4977697;28;20118;-66
2022/09/22 13:29:16;;;;;;;5.40;2.10;;;25.20;47.90;;;;;;4977275;28;20380;-66
2022/09/22 13:31:51;;;;;;;5.82;2.28;;;24.90;47.70;;;;;;4977393;28;20567;-66
2022/09/22 13:34:34;;;;;;;6.72;2.30;;;24.60;48.60;;;;;;4977594;28;20050;-66